sensor_id;sensor_type;location;lat;lon;timestamp;pressure;altitude;pressure_sealevel;temperature;humidity
33953;BME280;20231;42.710;23.280;2022-12-01T00:00:54;95153.88;;;8.70;66.31
33953;BME280;20231;42.710;23.280;2022-12-01T00:03:19;95155.69;;;8.75;66.06
33953;BME280;20231;42.710;23.280;2022-12-01T00:05:44;95160.94;;;8.70;66.21
33953;BME280;20231;42.710;23.280;2022-12-01T00:08:10;95156.22;;;8.72;66.27
33953;BME280;20231;42.710;23.280;2022-12-01T00:10:35;95152.28;;;8.74;66.14
33953;BME280;20231;42.710;23.280;2022-12-01T00:13:02;95148.06;;;8.78;66.02
33953;BME280;20231;42.710;23.280;2022-12-01T00:15:28;95143.63;;;8.79;66.02
33953;BME280;20231;42.710;23.280;2022-12-01T00:17:54;95152.00;;;8.76;66.05
33953;BME280;20231;42.710;23.280;2022-12-01T00:20:19;95144.13;;;8.81;65.92
33953;BME280;20231;42.710;23.280;2022-12-01T00:22:45;95137.56;;;8.78;66.06
33953;BME280;20231;42.710;23.280;2022-12-01T00:25:11;95150.19;;;8.76;66.12
33953;BME280;20231;42.710;23.280;2022-12-01T00:27:37;95143.63;;;8.84;65.80
33953;BME280;20231;42.710;23.280;2022-12-01T00:30:03;95154.41;;;8.77;65.90
33953;BME280;20231;42.710;23.280;2022-12-01T00:32:29;95151.25;;;8.85;65.59
33953;BME280;20231;42.710;23.280;2022-12-01T00:34:54;95153.88;;;8.90;65.21
33953;BME280;20231;42.710;23.280;2022-12-01T00:37:20;95154.94;;;8.89;65.03
33953;BME280;20231;42.710;23.280;2022-12-01T00:39:45;95153.88;;;8.90;64.81
33953;BME280;20231;42.710;23.280;2022-12-01T00:42:10;95149.41;;;8.86;64.82
33953;BME280;20231;42.710;23.280;2022-12-01T00:58:04;95128.09;;;9.07;63.80
33953;BME280;20231;42.710;23.280;2022-12-01T01:00:30;95123.09;;;8.96;64.05
33953;BME280;20231;42.710;23.280;2022-12-01T01:02:55;95137.81;;;9.07;63.97
33953;BME280;20231;42.710;23.280;2022-12-01T01:05:20;95136.25;;;8.96;64.36
33953;BME280;20231;42.710;23.280;2022-12-01T01:07:46;95119.66;;;8.90;64.46
33953;BME280;20231;42.710;23.280;2022-12-01T01:10:11;95113.38;;;8.76;64.71
33953;BME280;20231;42.710;23.280;2022-12-01T01:12:37;95121.53;;;8.80;64.87
33953;BME280;20231;42.710;23.280;2022-12-01T01:15:03;95126.78;;;8.85;64.94
33953;BME280;20231;42.710;23.280;2022-12-01T01:17:29;95112.03;;;8.84;64.80
33953;BME280;20231;42.710;23.280;2022-12-01T01:19:56;95114.41;;;8.75;65.25
33953;BME280;20231;42.710;23.280;2022-12-01T01:22:21;95123.63;;;8.78;65.25
33953;BME280;20231;42.710;23.280;2022-12-01T01:24:47;95111.78;;;8.75;65.53
33953;BME280;20231;42.710;23.280;2022-12-01T01:27:12;95107.56;;;8.74;65.54
33953;BME280;20231;42.710;23.280;2022-12-01T01:29:38;95105.72;;;8.70;64.08
33953;BME280;20231;42.710;23.280;2022-12-01T01:32:03;95110.19;;;8.40;63.13
33953;BME280;20231;42.710;23.280;2022-12-01T01:34:29;95102.53;;;8.33;62.78
33953;BME280;20231;42.710;23.280;2022-12-01T01:36:54;95101.38;;;8.09;62.96
33953;BME280;20231;42.710;23.280;2022-12-01T01:39:19;95113.25;;;8.17;63.36
33953;BME280;20231;42.710;23.280;2022-12-01T01:41:45;95108.81;;;8.22;63.73
33953;BME280;20231;42.710;23.280;2022-12-01T01:47:10;95108.06;;;8.42;63.93
33953;BME280;20231;42.710;23.280;2022-12-01T01:49:36;95101.22;;;8.41;64.26
33953;BME280;20231;42.710;23.280;2022-12-01T01:52:02;95101.25;;;8.46;64.90
33953;BME280;20231;42.710;23.280;2022-12-01T01:54:37;95097.03;;;8.50;65.18
33953;BME280;20231;42.710;23.280;2022-12-01T01:57:05;95076.50;;;8.42;65.34
33953;BME280;20231;42.710;23.280;2022-12-01T01:59:54;95090.72;;;8.51;65.63
33953;BME280;20231;42.710;23.280;2022-12-01T02:02:22;95096.25;;;8.54;65.76
33953;BME280;20231;42.710;23.280;2022-12-01T02:04:54;95098.34;;;8.62;65.64
33953;BME280;20231;42.710;23.280;2022-12-01T02:07:22;95087.81;;;8.52;65.67
33953;BME280;20231;42.710;23.280;2022-12-01T02:09:47;95080.97;;;8.51;66.14
33953;BME280;20231;42.710;23.280;2022-12-01T02:15:12;95086.78;;;8.63;66.03
33953;BME280;20231;42.710;23.280;2022-12-01T02:29:10;95089.66;;;8.47;66.40
33953;BME280;20231;42.710;23.280;2022-12-01T02:37:05;95075.50;;;8.52;66.05
33953;BME280;20231;42.710;23.280;2022-12-01T02:39:37;95073.38;;;8.54;66.19
33953;BME280;20231;42.710;23.280;2022-12-01T02:44:39;95081.53;;;8.53;66.10
33953;BME280;20231;42.710;23.280;2022-12-01T02:47:12;95079.41;;;8.50;66.15
33953;BME280;20231;42.710;23.280;2022-12-01T02:49:46;95084.41;;;8.47;66.22
33953;BME280;20231;42.710;23.280;2022-12-01T02:52:14;95063.09;;;8.33;66.25
33953;BME280;20231;42.710;23.280;2022-12-01T02:54:40;95073.59;;;8.38;66.25
33953;BME280;20231;42.710;23.280;2022-12-01T02:57:11;95062.56;;;8.26;66.71
33953;BME280;20231;42.710;23.280;2022-12-01T02:59:37;95074.91;;;8.21;66.50
33953;BME280;20231;42.710;23.280;2022-12-01T03:02:11;95086.22;;;8.21;66.53
33953;BME280;20231;42.710;23.280;2022-12-01T03:12:47;95083.19;;;7.88;63.96
33953;BME280;20231;42.710;23.280;2022-12-01T03:20:39;95080.56;;;7.83;63.97
33953;BME280;20231;42.710;23.280;2022-12-01T03:23:11;95065.06;;;7.86;63.68
33953;BME280;20231;42.710;23.280;2022-12-01T03:25:39;95075.34;;;7.98;63.53
33953;BME280;20231;42.710;23.280;2022-12-01T03:28:06;95067.72;;;7.91;62.97
33953;BME280;20231;42.710;23.280;2022-12-01T03:30:35;95069.84;;;7.99;62.78
33953;BME280;20231;42.710;23.280;2022-12-01T03:33:10;95080.34;;;8.04;62.73
33953;BME280;20231;42.710;23.280;2022-12-01T03:35:42;95077.75;;;8.09;62.54
33953;BME280;20231;42.710;23.280;2022-12-01T03:38:17;95075.97;;;8.15;62.20
33953;BME280;20231;42.710;23.280;2022-12-01T03:40:48;95063.84;;;8.14;62.03
33953;BME280;20231;42.710;23.280;2022-12-01T03:43:18;95069.59;;;8.11;62.11
33953;BME280;20231;42.710;23.280;2022-12-01T03:46:00;95084.63;;;8.20;62.24
33953;BME280;20231;42.710;23.280;2022-12-01T03:48:28;95063.03;;;8.13;61.88
33953;BME280;20231;42.710;23.280;2022-12-01T03:56:33;95066.50;;;8.29;61.56
33953;BME280;20231;42.710;23.280;2022-12-01T03:59:02;95069.94;;;8.34;61.21
33953;BME280;20231;42.710;23.280;2022-12-01T04:01:32;95059.94;;;8.26;61.17
33953;BME280;20231;42.710;23.280;2022-12-01T04:04:11;95087.03;;;8.32;61.23
33953;BME280;20231;42.710;23.280;2022-12-01T04:06:43;95069.13;;;8.29;61.13
33953;BME280;20231;42.710;23.280;2022-12-01T04:09:10;95083.84;;;8.30;61.44
33953;BME280;20231;42.710;23.280;2022-12-01T04:11:35;95078.31;;;8.21;62.11
33953;BME280;20231;42.710;23.280;2022-12-01T04:14:19;95083.03;;;8.19;62.96
33953;BME280;20231;42.710;23.280;2022-12-01T04:16:45;95080.41;;;8.19;63.41
33953;BME280;20231;42.710;23.280;2022-12-01T04:19:10;95069.59;;;8.06;63.88
33953;BME280;20231;42.710;23.280;2022-12-01T04:21:36;95067.50;;;8.03;64.48
33953;BME280;20231;42.710;23.280;2022-12-01T04:24:01;95076.44;;;8.12;64.88
33953;BME280;20231;42.710;23.280;2022-12-01T04:26:29;95091.66;;;8.05;66.07
33953;BME280;20231;42.710;23.280;2022-12-01T04:28:54;95087.69;;;8.02;66.56
33953;BME280;20231;42.710;23.280;2022-12-01T04:31:20;95099.25;;;8.01;67.21
33953;BME280;20231;42.710;23.280;2022-12-01T04:33:45;95097.94;;;7.99;67.11
33953;BME280;20231;42.710;23.280;2022-12-01T04:36:11;95087.97;;;7.96;67.09
33953;BME280;20231;42.710;23.280;2022-12-01T04:38:36;95086.13;;;8.01;65.98
33953;BME280;20231;42.710;23.280;2022-12-01T04:41:09;95086.09;;;7.86;64.42
33953;BME280;20231;42.710;23.280;2022-12-01T04:43:35;95091.06;;;7.83;64.70
33953;BME280;20231;42.710;23.280;2022-12-01T04:46:00;95090.81;;;7.84;64.63
33953;BME280;20231;42.710;23.280;2022-12-01T04:48:26;95090.78;;;7.75;64.65
33953;BME280;20231;42.710;23.280;2022-12-01T04:50:51;95098.38;;;7.76;64.02
33953;BME280;20231;42.710;23.280;2022-12-01T04:53:16;95090.25;;;7.78;63.46
33953;BME280;20231;42.710;23.280;2022-12-01T04:55:42;95090.50;;;7.76;62.56
33953;BME280;20231;42.710;23.280;2022-12-01T04:58:07;95086.28;;;7.65;61.63
33953;BME280;20231;42.710;23.280;2022-12-01T05:00:33;95096.25;;;7.68;61.04
33953;BME280;20231;42.710;23.280;2022-12-01T05:02:59;95091.72;;;7.54;61.31
33953;BME280;20231;42.710;23.280;2022-12-01T05:05:24;95101.47;;;7.58;61.03
33953;BME280;20231;42.710;23.280;2022-12-01T05:07:50;95112.25;;;7.67;61.35
33953;BME280;20231;42.710;23.280;2022-12-01T05:10:15;95099.41;;;7.65;60.32
33953;BME280;20231;42.710;23.280;2022-12-01T05:12:43;95093.09;;;7.66;60.61
33953;BME280;20231;42.710;23.280;2022-12-01T05:15:11;95091.25;;;7.67;60.70
33953;BME280;20231;42.710;23.280;2022-12-01T05:17:36;95097.06;;;7.69;60.67
33953;BME280;20231;42.710;23.280;2022-12-01T05:20:03;95094.66;;;7.67;60.39
33953;BME280;20231;42.710;23.280;2022-12-01T05:22:47;95102.56;;;7.72;60.83
33953;BME280;20231;42.710;23.280;2022-12-01T05:25:13;95106.53;;;7.75;60.92
33953;BME280;20231;42.710;23.280;2022-12-01T05:27:38;95101.50;;;7.68;60.54
33953;BME280;20231;42.710;23.280;2022-12-01T05:30:04;95104.09;;;7.58;60.67
33953;BME280;20231;42.710;23.280;2022-12-01T05:32:30;95111.72;;;7.60;61.17
33953;BME280;20231;42.710;23.280;2022-12-01T05:34:55;95107.28;;;7.65;60.63
33953;BME280;20231;42.710;23.280;2022-12-01T05:37:21;95091.72;;;7.54;60.40
33953;BME280;20231;42.710;23.280;2022-12-01T05:39:46;95099.06;;;7.52;59.84
33953;BME280;20231;42.710;23.280;2022-12-01T05:42:11;95099.81;;;7.47;59.73
33953;BME280;20231;42.710;23.280;2022-12-01T05:44:37;95101.91;;;7.40;59.79
33953;BME280;20231;42.710;23.280;2022-12-01T05:47:02;95117.69;;;7.45;59.34
33953;BME280;20231;42.710;23.280;2022-12-01T05:49:28;95102.41;;;7.37;59.51
33953;BME280;20231;42.710;23.280;2022-12-01T05:51:53;95102.81;;;7.19;59.40
33953;BME280;20231;42.710;23.280;2022-12-01T05:54:18;95120.78;;;7.37;59.31
33953;BME280;20231;42.710;23.280;2022-12-01T05:56:44;95100.81;;;7.36;58.94
33953;BME280;20231;42.710;23.280;2022-12-01T05:59:09;95101.25;;;7.23;59.48
33953;BME280;20231;42.710;23.280;2022-12-01T06:01:35;95096.28;;;7.27;59.13
33953;BME280;20231;42.710;23.280;2022-12-01T06:04:00;95099.22;;;7.30;59.27
33953;BME280;20231;42.710;23.280;2022-12-01T06:06:25;95110.81;;;7.39;59.09
33953;BME280;20231;42.710;23.280;2022-12-01T06:08:51;95108.19;;;7.39;59.22
33953;BME280;20231;42.710;23.280;2022-12-01T06:11:16;95104.47;;;7.35;59.18
33953;BME280;20231;42.710;23.280;2022-12-01T06:13:41;95099.97;;;7.26;59.30
33953;BME280;20231;42.710;23.280;2022-12-01T06:16:07;95107.59;;;7.27;59.89
33953;BME280;20231;42.710;23.280;2022-12-01T06:18:36;95116.25;;;7.28;60.38
33953;BME280;20231;42.710;23.280;2022-12-01T06:21:02;95112.63;;;7.34;60.04
33953;BME280;20231;42.710;23.280;2022-12-01T06:23:28;95118.97;;;7.43;59.95
33953;BME280;20231;42.710;23.280;2022-12-01T06:25:53;95116.88;;;7.45;59.78
33953;BME280;20231;42.710;23.280;2022-12-01T06:28:19;95122.69;;;7.57;59.58
33953;BME280;20231;42.710;23.280;2022-12-01T06:30:45;95069.53;;;7.25;59.68
33953;BME280;20231;42.710;23.280;2022-12-01T06:33:10;95118.28;;;7.62;59.53
33953;BME280;20231;42.710;23.280;2022-12-01T06:35:36;95101.19;;;7.55;59.37
33953;BME280;20231;42.710;23.280;2022-12-01T06:38:02;95095.41;;;7.58;59.43
33953;BME280;20231;42.710;23.280;2022-12-01T06:40:29;95100.94;;;7.61;59.59
33953;BME280;20231;42.710;23.280;2022-12-01T06:42:54;95107.81;;;7.72;59.44
33953;BME280;20231;42.710;23.280;2022-12-01T06:45:23;95103.84;;;7.65;59.41
33953;BME280;20231;42.710;23.280;2022-12-01T06:47:52;95110.19;;;7.74;59.22
33953;BME280;20231;42.710;23.280;2022-12-01T06:50:18;95105.72;;;7.74;59.13
33953;BME280;20231;42.710;23.280;2022-12-01T06:52:43;95115.19;;;7.75;59.19
33953;BME280;20231;42.710;23.280;2022-12-01T06:55:09;95107.81;;;7.72;59.51
33953;BME280;20231;42.710;23.280;2022-12-01T06:57:34;95116.25;;;7.79;59.62
33953;BME280;20231;42.710;23.280;2022-12-01T06:59:59;95113.06;;;7.72;59.88
33953;BME280;20231;42.710;23.280;2022-12-01T07:02:25;95095.94;;;7.60;60.40
33953;BME280;20231;42.710;23.280;2022-12-01T07:04:50;95075.44;;;7.52;60.39
33953;BME280;20231;42.710;23.280;2022-12-01T07:07:16;95105.69;;;7.64;60.62
33953;BME280;20231;42.710;23.280;2022-12-01T07:09:41;95101.47;;;7.58;60.72
33953;BME280;20231;42.710;23.280;2022-12-01T07:12:06;95094.91;;;7.61;60.59
33953;BME280;20231;42.710;23.280;2022-12-01T07:14:32;95121.19;;;7.71;60.88
33953;BME280;20231;42.710;23.280;2022-12-01T07:16:57;95122.00;;;7.71;61.17
33953;BME280;20231;42.710;23.280;2022-12-01T07:19:23;95121.72;;;7.68;61.21
33953;BME280;20231;42.710;23.280;2022-12-01T07:21:49;95114.34;;;7.60;61.66
33953;BME280;20231;42.710;23.280;2022-12-01T07:24:14;95103.25;;;7.48;61.85
33953;BME280;20231;42.710;23.280;2022-12-01T07:26:40;95124.84;;;7.60;62.38
33953;BME280;20231;42.710;23.280;2022-12-01T07:29:07;95120.34;;;7.55;62.45
33953;BME280;20231;42.710;23.280;2022-12-01T07:31:36;95111.41;;;7.51;62.74
33953;BME280;20231;42.710;23.280;2022-12-01T07:34:02;95099.22;;;7.35;62.84
33953;BME280;20231;42.710;23.280;2022-12-01T07:36:28;95123.44;;;7.47;63.00
33953;BME280;20231;42.710;23.280;2022-12-01T07:38:53;95119.25;;;7.46;63.40
33953;BME280;20231;42.710;23.280;2022-12-01T07:41:19;95125.56;;;7.50;63.65
33953;BME280;20231;42.710;23.280;2022-12-01T07:43:44;95119.28;;;7.51;63.46
33953;BME280;20231;42.710;23.280;2022-12-01T07:46:17;95132.13;;;7.48;64.06
33953;BME280;20231;42.710;23.280;2022-12-01T07:48:43;95117.13;;;7.43;64.22
33953;BME280;20231;42.710;23.280;2022-12-01T07:51:11;95111.38;;;7.46;64.21
33953;BME280;20231;42.710;23.280;2022-12-01T07:53:37;95121.09;;;7.51;64.45
33953;BME280;20231;42.710;23.280;2022-12-01T07:56:03;95130.53;;;7.47;64.96
33953;BME280;20231;42.710;23.280;2022-12-01T07:58:30;95110.31;;;7.47;64.83
33953;BME280;20231;42.710;23.280;2022-12-01T08:00:56;95119.00;;;7.53;65.09
33953;BME280;20231;42.710;23.280;2022-12-01T08:03:22;95126.88;;;7.48;65.76
33953;BME280;20231;42.710;23.280;2022-12-01T08:06:00;95135.28;;;7.50;65.71
33953;BME280;20231;42.710;23.280;2022-12-01T08:08:27;95114.53;;;7.48;65.73
33953;BME280;20231;42.710;23.280;2022-12-01T08:10:58;95122.63;;;7.42;65.89
33953;BME280;20231;42.710;23.280;2022-12-01T08:13:24;95095.00;;;7.29;65.93
33953;BME280;20231;42.710;23.280;2022-12-01T08:15:50;95118.72;;;7.44;65.86
33953;BME280;20231;42.710;23.280;2022-12-01T08:18:15;95109.78;;;7.40;65.94
33953;BME280;20231;42.710;23.280;2022-12-01T08:20:41;95115.34;;;7.54;65.98
33953;BME280;20231;42.710;23.280;2022-12-01T08:23:06;95122.19;;;7.55;66.20
33953;BME280;20231;42.710;23.280;2022-12-01T08:25:32;95121.91;;;7.51;66.38
33953;BME280;20231;42.710;23.280;2022-12-01T08:27:59;95135.03;;;7.51;66.72
33953;BME280;20231;42.710;23.280;2022-12-01T08:30:24;95123.44;;;7.47;67.01
33953;BME280;20231;42.710;23.280;2022-12-01T08:32:54;95131.31;;;7.47;67.46
33953;BME280;20231;42.710;23.280;2022-12-01T08:35:20;95099.22;;;7.30;67.45
33953;BME280;20231;42.710;23.280;2022-12-01T08:37:45;95125.31;;;7.57;67.16
33953;BME280;20231;42.710;23.280;2022-12-01T08:40:11;95128.75;;;7.57;67.24
33953;BME280;20231;42.710;23.280;2022-12-01T08:42:37;95116.09;;;7.49;67.35
33953;BME280;20231;42.710;23.280;2022-12-01T08:45:03;95126.06;;;7.47;67.56
33953;BME280;20231;42.710;23.280;2022-12-01T08:47:28;95126.59;;;7.44;67.60
33953;BME280;20231;42.710;23.280;2022-12-01T08:49:54;95123.22;;;7.49;67.62
33953;BME280;20231;42.710;23.280;2022-12-01T08:52:19;95099.22;;;7.35;67.90
33953;BME280;20231;42.710;23.280;2022-12-01T08:54:45;95113.75;;;7.48;67.91
33953;BME280;20231;42.710;23.280;2022-12-01T08:57:10;95119.47;;;7.40;68.27
33953;BME280;20231;42.710;23.280;2022-12-01T08:59:36;95117.13;;;7.43;68.35
33953;BME280;20231;42.710;23.280;2022-12-01T09:02:02;95099.00;;;7.37;68.24
33953;BME280;20231;42.710;23.280;2022-12-01T09:04:27;95102.41;;;7.37;68.18
33953;BME280;20231;42.710;23.280;2022-12-01T09:06:55;95069.78;;;7.23;68.01
33953;BME280;20231;42.710;23.280;2022-12-01T09:09:26;95118.44;;;7.46;68.17
33953;BME280;20231;42.710;23.280;2022-12-01T09:11:53;95072.44;;;7.28;67.72
33953;BME280;20231;42.710;23.280;2022-12-01T09:14:20;95113.28;;;7.61;67.49
33953;BME280;20231;42.710;23.280;2022-12-01T09:16:47;95103.81;;;7.55;67.59
33953;BME280;20231;42.710;23.280;2022-12-01T09:19:15;95113.00;;;7.52;68.01
33953;BME280;20231;42.710;23.280;2022-12-01T09:21:41;95105.63;;;7.54;67.53
33953;BME280;20231;42.710;23.280;2022-12-01T09:24:12;95110.41;;;7.67;67.28
33953;BME280;20231;42.710;23.280;2022-12-01T09:26:38;95101.22;;;7.65;66.92
33953;BME280;20231;42.710;23.280;2022-12-01T09:29:06;95103.84;;;7.65;67.30
33953;BME280;20231;42.710;23.280;2022-12-01T09:31:32;95076.53;;;7.56;66.15
33953;BME280;20231;42.710;23.280;2022-12-01T09:34:01;95106.28;;;7.76;65.90
33953;BME280;20231;42.710;23.280;2022-12-01T09:36:28;95084.44;;;7.71;65.53
33953;BME280;20231;42.710;23.280;2022-12-01T09:38:54;95081.31;;;7.74;64.68
33953;BME280;20231;42.710;23.280;2022-12-01T09:41:34;95060.44;;;7.47;64.59
33953;BME280;20231;42.710;23.280;2022-12-01T09:49:19;95086.03;;;7.72;63.82
33953;BME280;20231;42.710;23.280;2022-12-01T09:51:47;95076.28;;;7.62;63.94
33953;BME280;20231;42.710;23.280;2022-12-01T09:54:13;95083.66;;;7.70;63.70
33953;BME280;20231;42.710;23.280;2022-12-01T09:56:51;95064.47;;;7.65;63.62
33953;BME280;20231;42.710;23.280;2022-12-01T09:59:22;95074.47;;;7.73;63.26
33953;BME280;20231;42.710;23.280;2022-12-01T10:01:53;95048.97;;;7.58;63.39
33953;BME280;20231;42.710;23.280;2022-12-01T10:04:38;95082.91;;;7.84;62.69
33953;BME280;20231;42.710;23.280;2022-12-01T10:07:17;95077.13;;;7.82;62.95
33953;BME280;20231;42.710;23.280;2022-12-01T10:10:57;95083.88;;;7.64;62.99
33953;BME280;20231;42.710;23.280;2022-12-01T10:12:51;95063.16;;;7.67;62.49
33953;BME280;20231;42.710;23.280;2022-12-01T10:29:12;95069.63;;;8.16;62.68
33953;BME280;20231;42.710;23.280;2022-12-01T10:31:51;95059.13;;;8.16;61.26
33953;BME280;20231;42.710;23.280;2022-12-01T10:34:21;95069.38;;;8.17;60.38
33953;BME280;20231;42.710;23.280;2022-12-01T10:36:48;95045.13;;;7.95;60.10
33953;BME280;20231;42.710;23.280;2022-12-01T10:39:26;95071.94;;;8.12;59.54
33953;BME280;20231;42.710;23.280;2022-12-01T10:42:04;95051.97;;;7.96;59.68
33953;BME280;20231;42.710;23.280;2022-12-01T10:44:34;95062.19;;;7.98;59.60
33953;BME280;20231;42.710;23.280;2022-12-01T10:47:01;95059.59;;;8.03;59.47
33953;BME280;20231;42.710;23.280;2022-12-01T10:49:37;95064.63;;;8.14;59.05
33953;BME280;20231;42.710;23.280;2022-12-01T10:52:04;95059.59;;;8.03;58.92
33953;BME280;20231;42.710;23.280;2022-12-01T10:54:36;95062.81;;;8.20;59.14
33953;BME280;20231;42.710;23.280;2022-12-01T10:57:02;95058.53;;;8.04;59.06
33953;BME280;20231;42.710;23.280;2022-12-01T10:59:34;95063.31;;;8.17;59.15
33953;BME280;20231;42.710;23.280;2022-12-01T11:02:04;95045.94;;;7.96;59.01
33953;BME280;20231;42.710;23.280;2022-12-01T11:04:41;95058.81;;;8.07;58.80
33953;BME280;20231;42.710;23.280;2022-12-01T11:07:44;95058.81;;;8.02;58.81
33953;BME280;20231;42.710;23.280;2022-12-01T11:10:18;95058.25;;;8.00;58.70
33953;BME280;20231;42.710;23.280;2022-12-01T11:12:51;95019.03;;;7.59;58.59
33953;BME280;20231;42.710;23.280;2022-12-01T11:15:25;95046.91;;;7.80;59.15
33953;BME280;20231;42.710;23.280;2022-12-01T11:18:03;95035.56;;;7.60;59.12
33953;BME280;20231;42.710;23.280;2022-12-01T11:20:37;95030.34;;;7.70;59.39
33953;BME280;20231;42.710;23.280;2022-12-01T11:25:34;95040.63;;;7.76;58.94
33953;BME280;20231;42.710;23.280;2022-12-01T11:28:02;95047.19;;;7.74;59.17
33953;BME280;20231;42.710;23.280;2022-12-01T11:30:29;95028.19;;;7.57;59.12
33953;BME280;20231;42.710;23.280;2022-12-01T11:32:58;95025.91;;;7.70;63.81
33953;BME280;20231;42.710;23.280;2022-12-01T11:49:21;95044.47;;;7.49;59.65
33953;BME280;20231;42.710;23.280;2022-12-01T11:51:47;95030.22;;;7.40;59.75
33953;BME280;20231;42.710;23.280;2022-12-01T11:54:14;95041.78;;;7.39;60.50
33953;BME280;20231;42.710;23.280;2022-12-01T11:56:41;95050.47;;;7.44;60.22
33953;BME280;20231;42.710;23.280;2022-12-01T11:59:20;95042.34;;;7.51;60.17
33953;BME280;20231;42.710;23.280;2022-12-01T12:04:40;95048.97;;;7.58;60.33
33953;BME280;20231;42.710;23.280;2022-12-01T12:18:08;95045.06;;;7.71;60.97
33953;BME280;20231;42.710;23.280;2022-12-01T12:28:52;95040.34;;;7.68;61.02
33953;BME280;20231;42.710;23.280;2022-12-01T12:31:38;95034.75;;;7.54;60.91
33953;BME280;20231;42.710;23.280;2022-12-01T12:37:10;95053.69;;;7.61;60.54
33953;BME280;20231;42.710;23.280;2022-12-01T12:45:30;95059.97;;;7.55;60.45
33953;BME280;20231;42.710;23.280;2022-12-01T12:49:09;95042.63;;;7.49;60.32
33953;BME280;20231;42.710;23.280;2022-12-01T12:51:17;95060.72;;;7.51;60.31
33953;BME280;20231;42.710;23.280;2022-12-01T12:54:16;95065.47;;;7.49;60.69
33953;BME280;20231;42.710;23.280;2022-12-01T12:56:48;95059.97;;;7.55;60.80
33953;BME280;20231;42.710;23.280;2022-12-01T12:59:22;95049.94;;;7.42;60.87
33953;BME280;20231;42.710;23.280;2022-12-01T13:02:23;95064.69;;;7.53;60.83
33953;BME280;20231;42.710;23.280;2022-12-01T13:07:42;95050.50;;;7.49;60.99
33953;BME280;20231;42.710;23.280;2022-12-01T13:10:21;95071.00;;;7.52;60.93
33953;BME280;20231;42.710;23.280;2022-12-01T13:13:22;95053.59;;;7.41;60.84
33953;BME280;20231;42.710;23.280;2022-12-01T13:16:04;95054.34;;;7.32;61.30
33953;BME280;20231;42.710;23.280;2022-12-01T13:18:40;95063.34;;;7.46;61.28
33953;BME280;20231;42.710;23.280;2022-12-01T13:21:14;95068.81;;;7.39;61.44
33953;BME280;20231;42.710;23.280;2022-12-01T13:23:40;95052.72;;;7.21;61.31
33953;BME280;20231;42.710;23.280;2022-12-01T13:26:08;95063.50;;;7.29;61.57
33953;BME280;20231;42.710;23.280;2022-12-01T13:28:44;95055.63;;;7.24;61.51
33953;BME280;20231;42.710;23.280;2022-12-01T13:31:12;95058.47;;;7.13;61.59
33953;BME280;20231;42.710;23.280;2022-12-01T13:34:04;95062.16;;;7.22;61.73
33953;BME280;20231;42.710;23.280;2022-12-01T13:36:30;95073.97;;;7.19;61.88
33953;BME280;20231;42.710;23.280;2022-12-01T13:38:58;95070.28;;;7.20;62.06
33953;BME280;20231;42.710;23.280;2022-12-01T13:41:29;95060.59;;;7.21;61.47
33953;BME280;20231;42.710;23.280;2022-12-01T13:46:49;95078.16;;;7.15;61.69
33953;BME280;20231;42.710;23.280;2022-12-01T13:49:39;95070.28;;;7.15;61.47
33953;BME280;20231;42.710;23.280;2022-12-01T14:13:18;95071.25;;;7.05;60.19
33953;BME280;20231;42.710;23.280;2022-12-01T14:15:44;95062.56;;;6.99;60.29
33953;BME280;20231;42.710;23.280;2022-12-01T14:21:01;95071.25;;;7.05;59.94
33953;BME280;20231;42.710;23.280;2022-12-01T14:23:31;95073.84;;;7.05;60.28
33953;BME280;20231;42.710;23.280;2022-12-01T14:26:12;95068.84;;;6.98;60.18
33953;BME280;20231;42.710;23.280;2022-12-01T14:31:23;95070.16;;;7.01;60.13
33953;BME280;20231;42.710;23.280;2022-12-01T14:33:57;95076.44;;;6.95;60.31
33953;BME280;20231;42.710;23.280;2022-12-01T14:41:48;95085.91;;;7.01;60.58
33953;BME280;20231;42.710;23.280;2022-12-01T14:46:53;95088.75;;;6.94;60.73
33953;BME280;20231;42.710;23.280;2022-12-01T14:49:22;95090.91;;;7.02;60.43
33953;BME280;20231;42.710;23.280;2022-12-01T14:51:59;95082.50;;;7.00;60.56
33953;BME280;20231;42.710;23.280;2022-12-01T14:54:31;95091.31;;;6.89;60.43
33953;BME280;20231;42.710;23.280;2022-12-01T14:57:01;95101.81;;;6.89;60.91
33953;BME280;20231;42.710;23.280;2022-12-01T14:59:28;95089.19;;;6.81;60.93
33953;BME280;20231;42.710;23.280;2022-12-01T15:01:57;95109.16;;;6.87;61.23
33953;BME280;20231;42.710;23.280;2022-12-01T15:04:28;95097.06;;;6.81;61.14
33953;BME280;20231;42.710;23.280;2022-12-01T15:06:55;95112.41;;;6.99;61.11
33953;BME280;20231;42.710;23.280;2022-12-01T15:09:22;95111.56;;;6.94;61.33
33953;BME280;20231;42.710;23.280;2022-12-01T15:11:57;95104.28;;;7.06;60.75
33953;BME280;20231;42.710;23.280;2022-12-01T15:16:51;95101.91;;;6.99;61.04
33953;BME280;20231;42.710;23.280;2022-12-01T15:19:29;95094.22;;;6.88;60.95
33953;BME280;20231;42.710;23.280;2022-12-01T15:21:54;95106.31;;;6.94;61.36
33953;BME280;20231;42.710;23.280;2022-12-01T15:24:23;95100.59;;;7.02;61.06
33953;BME280;20231;42.710;23.280;2022-12-01T15:26:52;95092.94;;;6.95;60.94
33953;BME280;20231;42.710;23.280;2022-12-01T15:31:54;95113.19;;;7.00;60.97
33953;BME280;20231;42.710;23.280;2022-12-01T15:34:22;95098.78;;;7.07;60.89
33953;BME280;20231;42.710;23.280;2022-12-01T15:36:50;95092.16;;;6.95;60.59
33953;BME280;20231;42.710;23.280;2022-12-01T15:39:19;95096.41;;;7.01;60.33
33953;BME280;20231;42.710;23.280;2022-12-01T15:41:47;95091.03;;;6.86;60.47
33953;BME280;20231;42.710;23.280;2022-12-01T15:44:19;95092.28;;;6.73;60.92
33953;BME280;20231;42.710;23.280;2022-12-01T15:46:45;95100.31;;;6.67;61.33
33953;BME280;20231;42.710;23.280;2022-12-01T15:51:47;95100.47;;;6.82;60.66
33953;BME280;20231;42.710;23.280;2022-12-01T15:54:24;95097.06;;;6.81;60.64
33953;BME280;20231;42.710;23.280;2022-12-01T15:56:54;95104.13;;;6.81;60.64
33953;BME280;20231;42.710;23.280;2022-12-01T15:59:34;95092.56;;;6.77;60.75
33953;BME280;20231;42.710;23.280;2022-12-01T16:05:21;95109.50;;;7.01;59.99